Time;durP1;ratioP1;P1;durP2;ratioP2;P2;SDS_P1;SDS_P2;PMS_P1;PMS_P2;Temp;Humidity;BMP_temperature;BMP_pressure;BME280_temperature;BME280_humidity;BME280_pressure;Samples;Min_cycle;Max_cycle;Signal;HPM_P1;HPM_P2
2020/12/18 00:00:11;;;;;;;6.60;5.22;;;8.10;79.80;;;;;;5102967;28;20020;-44
2020/12/18 00:02:37;;;;;;;7.53;5.65;;;8.00;79.80;;;;;;5095780;28;20028;-44
2020/12/18 00:05:03;;;;;;;7.20;5.50;;;8.10;79.90;;;;;;5082414;28;20553;-44
2020/12/18 00:07:30;;;;;;;8.07;6.07;;;8.00;79.80;;;;;;5097998;28;20058;-44
2020/12/18 00:09:59;;;;;;;6.97;5.43;;;8.00;79.80;;;;;;5102892;28;20032;-44
2020/12/18 00:12:25;;;;;;;7.93;6.30;;;8.00;79.80;;;;;;5102942;28;20020;-44
2020/12/18 00:14:51;;;;;;;7.13;5.82;;;8.00;79.70;;;;;;5102770;28;20054;-44
2020/12/18 00:17:17;;;;;;;7.07;5.45;;;8.00;79.80;;;;;;5102784;28;20054;-44
2020/12/18 00:19:43;;;;;;;6.80;5.97;;;8.00;79.80;;;;;;5130721;28;20479;-45
2020/12/18 00:22:09;;;;;;;8.23;5.95;;;8.00;79.80;;;;;;5143920;28;20039;-44
2020/12/18 00:24:36;;;;;;;7.07;5.47;;;7.90;79.70;;;;;;5143617;27;20073;-44
2020/12/18 00:27:02;;;;;;;8.38;6.15;;;7.90;79.70;;;;;;5147868;27;20151;-44
2020/12/18 00:29:28;;;;;;;7.05;5.93;;;7.90;79.70;;;;;;5147942;27;20084;-44
2020/12/18 00:31:54;;;;;;;10.52;5.68;;;7.90;79.80;;;;;;5144387;27;20112;-44
2020/12/18 00:34:21;;;;;;;8.05;6.47;;;7.90;79.70;;;;;;5127164;28;20024;-44
2020/12/18 00:36:53;;;;;;;8.23;5.90;;;7.90;79.80;;;;;;5127118;28;20027;-45
2020/12/18 00:39:19;;;;;;;7.22;5.50;;;7.90;79.80;;;;;;5127413;28;20024;-44
2020/12/18 00:41:52;;;;;;;7.43;5.82;;;7.90;79.70;;;;;;5127162;28;20482;-44
2020/12/18 00:44:18;;;;;;;7.18;5.57;;;7.90;79.70;;;;;;5127140;28;20133;-44
2020/12/18 00:46:44;;;;;;;8.32;6.22;;;7.80;79.60;;;;;;5127128;28;20511;-44
2020/12/18 00:49:10;;;;;;;7.35;5.63;;;7.80;79.60;;;;;;5128669;27;20027;-45
2020/12/18 00:51:36;;;;;;;7.75;5.55;;;7.80;79.70;;;;;;5133266;27;20127;-44
2020/12/18 00:54:02;;;;;;;8.48;5.65;;;7.80;79.70;;;;;;5118070;28;20041;-44
2020/12/18 00:56:28;;;;;;;7.63;5.60;;;7.80;79.70;;;;;;5126728;28;20031;-45
2020/12/18 00:58:55;;;;;;;7.40;5.80;;;7.80;79.70;;;;;;5127072;28;20095;-44
2020/12/18 01:01:21;;;;;;;8.18;6.30;;;7.80;79.70;;;;;;5126931;28;20032;-45
2020/12/18 01:03:47;;;;;;;8.10;5.40;;;7.70;79.70;;;;;;5107332;28;20035;-44
2020/12/18 01:06:13;;;;;;;7.60;5.45;;;7.70;79.70;;;;;;5106059;28;20028;-44
2020/12/18 01:08:39;;;;;;;6.30;5.20;;;7.70;79.70;;;;;;5106261;28;20043;-44
2020/12/18 01:11:06;;;;;;;6.90;5.65;;;7.70;79.70;;;;;;5106341;28;20058;-44
2020/12/18 01:13:32;;;;;;;7.55;5.93;;;7.70;79.70;;;;;;5106138;28;20730;-46
2020/12/18 01:15:59;;;;;;;5.93;3.90;;;7.70;79.70;;;;;;5087592;28;20054;-44
2020/12/18 01:18:25;;;;;;;7.43;5.80;;;7.70;79.70;;;;;;5098039;28;20525;-46
2020/12/18 01:20:52;;;;;;;7.50;5.53;;;7.70;79.70;;;;;;5085955;28;20269;-44
2020/12/18 01:23:19;;;;;;;7.38;5.53;;;7.70;79.70;;;;;;5106175;28;20544;-44
2020/12/18 01:25:45;;;;;;;8.67;6.03;;;7.60;79.70;;;;;;5105675;28;20081;-44
2020/12/18 01:28:12;;;;;;;7.13;5.43;;;7.60;79.70;;;;;;5087847;28;20024;-44
2020/12/18 01:30:38;;;;;;;8.45;5.78;;;7.60;79.80;;;;;;5070320;28;20066;-44
2020/12/18 01:33:04;;;;;;;7.15;5.85;;;7.60;79.80;;;;;;5094830;28;20033;-43
2020/12/18 01:35:30;;;;;;;7.93;5.85;;;7.60;79.70;;;;;;5085437;28;20028;-44
2020/12/18 01:37:57;;;;;;;7.68;5.75;;;7.60;79.70;;;;;;5084261;28;20021;-45
2020/12/18 01:40:23;;;;;;;7.70;5.65;;;7.60;79.70;;;;;;5093033;28;20110;-44
2020/12/18 01:42:49;;;;;;;7.28;5.78;;;7.60;79.70;;;;;;5105652;28;20048;-44
2020/12/18 01:45:15;;;;;;;7.55;5.95;;;7.60;79.70;;;;;;5105582;28;20028;-44
2020/12/18 01:47:41;;;;;;;8.27;6.57;;;7.60;79.70;;;;;;5105418;28;20020;-44
2020/12/18 01:50:07;;;;;;;7.35;5.78;;;7.50;79.60;;;;;;5104318;28;20043;-44
2020/12/18 01:52:34;;;;;;;7.47;6.20;;;7.50;79.70;;;;;;5070565;28;20077;-45
2020/12/18 01:55:03;;;;;;;7.30;5.73;;;7.50;79.70;;;;;;5087028;28;20077;-44
2020/12/18 01:57:29;;;;;;;6.47;5.05;;;7.50;79.70;;;;;;5105372;28;20035;-43
2020/12/18 01:59:56;;;;;;;7.70;5.95;;;7.50;79.70;;;;;;5087560;28;20088;-44
2020/12/18 02:02:22;;;;;;;6.95;5.60;;;7.50;79.70;;;;;;5087040;28;20137;-44
2020/12/18 02:04:48;;;;;;;7.28;5.55;;;7.50;79.70;;;;;;5105297;28;20583;-44
2020/12/18 02:07:15;;;;;;;6.80;5.57;;;7.50;79.70;;;;;;5104918;28;20366;-44
2020/12/18 02:09:42;;;;;;;6.75;5.32;;;7.40;79.60;;;;;;5105315;28;20082;-44
2020/12/18 02:12:08;;;;;;;7.18;5.68;;;7.40;79.70;;;;;;5086624;28;20025;-44
2020/12/18 02:14:34;;;;;;;6.13;5.05;;;7.40;79.70;;;;;;5105369;28;20032;-44
2020/12/18 02:17:00;;;;;;;7.72;5.47;;;7.40;79.70;;;;;;5086601;28;20024;-44
2020/12/18 02:19:30;;;;;;;7.32;5.70;;;7.40;79.70;;;;;;5109940;27;20043;-44
2020/12/18 02:21:56;;;;;;;6.38;5.32;;;7.40;79.70;;;;;;5145983;27;20023;-44
2020/12/18 02:24:25;;;;;;;7.25;5.47;;;7.40;79.70;;;;;;5146124;27;20643;-44
2020/12/18 02:26:53;;;;;;;6.72;5.38;;;7.40;79.70;;;;;;5145719;27;20042;-44
2020/12/18 02:29:20;;;;;;;6.68;5.38;;;7.40;79.80;;;;;;5127259;27;20043;-43
2020/12/18 02:31:49;;;;;;;8.07;6.17;;;7.30;79.60;;;;;;5143643;27;20020;-44
2020/12/18 02:34:25;;;;;;;7.20;5.40;;;7.30;79.60;;;;;;5106987;28;20260;-44
2020/12/18 02:36:52;;;;;;;7.28;5.57;;;7.30;79.70;;;;;;5114490;28;20063;-43
2020/12/18 02:39:18;;;;;;;7.47;5.35;;;7.30;79.70;;;;;;5104716;28;20044;-43
2020/12/18 02:41:44;;;;;;;7.95;5.50;;;7.30;79.80;;;;;;5122946;28;20032;-43
2020/12/18 02:44:11;;;;;;;6.25;5.22;;;7.30;79.80;;;;;;5125020;28;20031;-43
2020/12/18 02:46:37;;;;;;;7.23;5.53;;;7.30;79.80;;;;;;5124876;28;20592;-43
2020/12/18 02:49:03;;;;;;;7.20;5.20;;;7.30;79.70;;;;;;5130392;27;20350;-44
2020/12/18 02:51:30;;;;;;;7.07;5.30;;;7.20;79.70;;;;;;5145621;27;20027;-43
2020/12/18 02:53:56;;;;;;;7.57;5.78;;;7.20;79.70;;;;;;5145383;27;20035;-44
2020/12/18 02:56:26;;;;;;;6.80;5.53;;;7.20;79.70;;;;;;5145028;27;20510;-44
2020/12/18 02:58:53;;;;;;;7.03;5.43;;;7.20;79.70;;;;;;5109964;27;20038;-45
2020/12/18 03:01:22;;;;;;;8.27;5.85;;;7.20;79.70;;;;;;5145310;27;20097;-44
2020/12/18 03:03:48;;;;;;;7.70;5.53;;;7.20;79.70;;;;;;5125424;27;20189;-44
2020/12/18 03:06:14;;;;;;;6.20;5.10;;;7.20;79.80;;;;;;5119438;28;20411;-44
2020/12/18 03:08:40;;;;;;;6.82;5.03;;;7.20;80.40;;;;;;5104131;28;20032;-43
2020/12/18 03:11:07;;;;;;;6.72;4.95;;;7.20;79.70;;;;;;5112050;27;20658;-44
2020/12/18 03:13:33;;;;;;;7.38;5.28;;;7.10;79.70;;;;;;5124594;28;20024;-43
2020/12/18 03:15:59;;;;;;;7.75;5.25;;;7.10;79.70;;;;;;5124144;28;20417;-44
2020/12/18 03:18:25;;;;;;;5.90;4.72;;;7.10;79.70;;;;;;5124020;28;20048;-43
2020/12/18 03:20:52;;;;;;;7.28;5.68;;;7.10;79.70;;;;;;5143184;27;20030;-44
2020/12/18 03:23:18;;;;;;;7.00;5.55;;;7.10;79.70;;;;;;5144945;27;20801;-44
2020/12/18 03:25:44;;;;;;;6.40;5.38;;;7.10;79.80;;;;;;5144660;27;20034;-43
2020/12/18 03:28:10;;;;;;;6.22;5.20;;;7.10;79.80;;;;;;5109043;27;20037;-44
2020/12/18 03:30:36;;;;;;;6.38;5.05;;;7.00;79.70;;;;;;5144597;27;20043;-44
2020/12/18 03:33:03;;;;;;;6.40;5.05;;;7.10;79.80;;;;;;5120863;27;20396;-43
2020/12/18 03:35:30;;;;;;;6.63;5.45;;;7.10;79.80;;;;;;5103440;28;20028;-44
2020/12/18 03:37:56;;;;;;;7.13;5.00;;;7.00;79.70;;;;;;5122711;28;20152;-43
2020/12/18 03:40:22;;;;;;;6.50;5.15;;;7.00;79.70;;;;;;5123710;28;20053;-43
2020/12/18 03:42:48;;;;;;;8.32;5.97;;;7.00;79.80;;;;;;5123793;28;20038;-43
2020/12/18 03:45:14;;;;;;;6.20;5.05;;;7.00;79.80;;;;;;5123864;28;20395;-43
2020/12/18 03:47:40;;;;;;;7.03;5.35;;;7.00;79.80;;;;;;5123294;28;20031;-43
2020/12/18 03:50:07;;;;;;;6.97;5.57;;;7.00;79.80;;;;;;5105358;28;20031;-43
2020/12/18 03:52:33;;;;;;;6.13;5.15;;;6.90;79.80;;;;;;5123854;28;20097;-43
2020/12/18 03:54:59;;;;;;;6.07;4.72;;;6.90;79.80;;;;;;5123822;28;20506;-43
2020/12/18 03:57:25;;;;;;;6.63;4.95;;;6.90;79.80;;;;;;5123377;28;20027;-43
2020/12/18 03:59:51;;;;;;;6.88;5.38;;;6.90;79.80;;;;;;5122941;28;20031;-43
2020/12/18 04:02:17;;;;;;;6.32;4.90;;;6.90;79.80;;;;;;5127859;27;20027;-43
2020/12/18 04:04:44;;;;;;;6.85;5.40;;;6.90;79.80;;;;;;5144006;27;20120;-43
2020/12/18 04:07:13;;;;;;;7.00;5.47;;;6.90;79.80;;;;;;5131781;27;20045;-44
2020/12/18 04:09:43;;;;;;;6.03;4.75;;;6.90;79.80;;;;;;5123559;28;20590;-43
2020/12/18 04:12:09;;;;;;;7.38;5.40;;;6.80;79.80;;;;;;5123352;28;20032;-43
2020/12/18 04:14:36;;;;;;;6.57;4.70;;;6.90;79.90;;;;;;5123441;28;20582;-43
2020/12/18 04:17:02;;;;;;;6.95;5.05;;;6.80;79.80;;;;;;5122783;28;20024;-43
2020/12/18 04:19:29;;;;;;;5.82;4.82;;;6.90;79.80;;;;;;5130289;27;20063;-43
2020/12/18 04:21:55;;;;;;;6.63;5.32;;;6.80;79.90;;;;;;5144070;27;20052;-44
2020/12/18 04:24:21;;;;;;;6.05;4.88;;;6.80;79.90;;;;;;5144175;28;20050;-44
2020/12/18 04:26:48;;;;;;;6.35;5.00;;;6.80;79.90;;;;;;5143723;28;20023;-44
2020/12/18 04:29:14;;;;;;;6.50;4.88;;;6.80;79.90;;;;;;5125353;28;20047;-43
2020/12/18 04:31:41;;;;;;;7.60;5.40;;;6.80;79.90;;;;;;5142191;28;20019;-43
2020/12/18 04:34:07;;;;;;;7.07;5.50;;;6.80;79.90;;;;;;5103376;28;20032;-43
2020/12/18 04:36:34;;;;;;;6.90;5.32;;;6.80;79.90;;;;;;5102922;28;20046;-43
2020/12/18 04:39:00;;;;;;;7.00;5.20;;;6.80;79.90;;;;;;5102802;28;20024;-44
2020/12/18 04:41:27;;;;;;;6.90;4.90;;;6.80;79.90;;;;;;5119316;28;20023;-43
2020/12/18 04:43:54;;;;;;;7.20;5.32;;;6.70;79.80;;;;;;5123264;28;20030;-43
2020/12/18 04:46:21;;;;;;;6.78;5.15;;;6.70;79.80;;;;;;5123008;28;20381;-43
2020/12/18 04:48:48;;;;;;;6.82;5.30;;;6.70;79.90;;;;;;5123827;28;20057;-43
2020/12/18 04:51:18;;;;;;;7.85;5.13;;;6.70;79.90;;;;;;5140470;28;20058;-43
2020/12/18 04:53:49;;;;;;;7.30;5.22;;;6.70;79.90;;;;;;5143314;28;20094;-44
2020/12/18 04:56:24;;;;;;;7.95;4.97;;;6.70;79.90;;;;;;5108571;28;20026;-44
2020/12/18 04:58:54;;;;;;;7.57;5.00;;;6.70;79.90;;;;;;5125853;28;20083;-42
2020/12/18 05:01:21;;;;;;;7.47;5.57;;;6.60;79.90;;;;;;5120098;28;20055;-43
2020/12/18 05:03:47;;;;;;;;;;;6.60;79.90;;;;;;5124123;28;20031;-43
2020/12/18 05:06:14;;;;;;;6.13;4.85;;;6.70;79.90;;;;;;5122911;28;19907;-43
2020/12/18 05:08:42;;;;;;;7.15;5.50;;;6.60;79.90;;;;;;5122620;28;20058;-43
2020/12/18 05:11:22;;;;;;;6.50;5.10;;;6.60;79.90;;;;;;5122901;28;20130;-43
2020/12/18 05:13:50;;;;;;;6.43;5.20;;;6.60;79.90;;;;;;5124414;28;20548;-43
2020/12/18 05:16:21;;;;;;;;;;;6.60;79.90;;;;;;5121338;28;20035;-44
2020/12/18 05:18:48;;;;;;;7.68;5.30;;;6.60;80.00;;;;;;5127288;27;19926;-45
2020/12/18 05:21:14;;;;;;;5.82;4.85;;;6.60;80.00;;;;;;5147296;27;20027;-43
2020/12/18 05:23:44;;;;;;;8.40;5.63;;;6.60;80.00;;;;;;5147312;27;20110;-43
2020/12/18 05:26:11;;;;;;;7.00;5.40;;;6.50;80.00;;;;;;5146860;27;20256;-44
2020/12/18 05:28:45;;;;;;;7.18;5.70;;;6.60;80.00;;;;;;5146667;27;20034;-44
2020/12/18 05:31:19;;;;;;;6.25;5.00;;;6.50;80.00;;;;;;5146950;27;20038;-44
2020/12/18 05:33:48;;;;;;;7.05;5.28;;;6.50;80.00;;;;;;5125456;27;20500;-43
2020/12/18 05:36:14;;;;;;;7.63;5.22;;;6.50;80.00;;;;;;5106173;28;20039;-42
2020/12/18 05:38:41;;;;;;;6.90;5.27;;;6.50;80.00;;;;;;5105573;28;20028;-44
2020/12/18 05:41:08;;;;;;;6.53;4.88;;;6.50;80.00;;;;;;5105723;28;20324;-43
2020/12/18 05:43:40;;;;;;;;;;;6.50;80.00;;;;;;5106362;28;20062;-43
2020/12/18 05:46:24;;;;;;;6.07;4.70;;;6.50;80.00;;;;;;5121458;28;19931;-44
2020/12/18 05:48:56;;;;;;;6.95;5.30;;;6.40;79.90;;;;;;5108548;27;20088;-43
2020/12/18 05:51:38;;;;;;;6.30;4.65;;;6.40;79.90;;;;;;5134050;27;20035;-43
2020/12/18 05:54:14;;;;;;;6.63;5.38;;;6.40;80.00;;;;;;5125944;28;20046;-44
2020/12/18 05:56:42;;;;;;;6.38;4.82;;;6.40;80.00;;;;;;5125795;28;20096;-44
2020/12/18 05:59:12;;;;;;;7.47;5.30;;;6.40;80.00;;;;;;5125798;28;20138;-47
2020/12/18 06:01:41;;;;;;;6.65;4.93;;;6.40;80.00;;;;;;5125799;28;20043;-43
2020/12/18 06:04:14;;;;;;;7.30;5.32;;;6.40;80.00;;;;;;5133644;27;20487;-44
2020/12/18 06:06:51;;;;;;;6.40;4.90;;;6.40;80.00;;;;;;5108165;28;20065;-43
2020/12/18 06:09:26;;;;;;;6.38;4.93;;;6.30;80.00;;;;;;5125514;28;20049;-43
2020/12/18 06:11:52;;;;;;;5.85;4.85;;;6.30;80.00;;;;;;5125413;28;20027;-44
2020/12/18 06:14:19;;;;;;;6.93;5.20;;;6.30;80.00;;;;;;5136364;27;20059;-44
2020/12/18 06:16:51;;;;;;;7.57;5.47;;;6.30;80.00;;;;;;5146222;27;20023;-43
2020/12/18 06:19:21;;;;;;;6.38;4.93;;;6.30;80.00;;;;;;5140169;27;20111;-46
2020/12/18 06:21:58;;;;;;;6.75;5.18;;;6.30;80.00;;;;;;5125530;28;20043;-44
2020/12/18 06:24:24;;;;;;;6.88;5.40;;;6.30;80.00;;;;;;5124916;28;20035;-43
2020/12/18 06:26:54;;;;;;;6.32;4.88;;;6.30;80.10;;;;;;5125336;28;20024;-43
2020/12/18 06:29:22;;;;;;;6.13;4.80;;;6.30;80.10;;;;;;5125265;28;20103;-44
2020/12/18 06:31:48;;;;;;;7.15;5.15;;;6.30;80.00;;;;;;5125276;28;20111;-43
2020/12/18 06:34:28;;;;;;;6.20;4.70;;;6.30;80.00;;;;;;5138188;27;20048;-44
2020/12/18 06:36:57;;;;;;;7.05;5.13;;;6.30;80.10;;;;;;5145733;27;20028;-44
2020/12/18 06:39:29;;;;;;;6.15;5.18;;;6.20;80.10;;;;;;5145354;27;20038;-44
2020/12/18 06:42:15;;;;;;;6.43;4.85;;;6.20;80.00;;;;;;5145564;27;20027;-43
2020/12/18 06:44:47;;;;;;;6.03;4.72;;;6.20;80.10;;;;;;5141662;27;20028;-43
2020/12/18 06:47:17;;;;;;;7.38;5.30;;;6.20;80.10;;;;;;5105934;28;20779;-43
2020/12/18 06:49:55;;;;;;;6.50;5.07;;;6.20;80.10;;;;;;5133392;27;20779;-44
2020/12/18 06:52:43;;;;;;;6.57;5.10;;;6.20;80.10;;;;;;5145523;27;20023;-44
2020/12/18 06:55:26;;;;;;;6.95;5.00;;;6.20;80.10;;;;;;5142761;27;20035;-43
2020/12/18 06:58:19;;;;;;;6.00;5.05;;;6.20;80.20;;;;;;5104278;28;20122;-43
2020/12/18 07:00:49;;;;;;;6.28;4.90;;;6.10;80.10;;;;;;5100112;28;20040;-44
2020/12/18 07:03:40;;;;;;;7.38;5.10;;;6.10;80.10;;;;;;5121455;27;20067;-43
2020/12/18 07:06:23;;;;;;;7.40;5.00;;;6.10;80.10;;;;;;5145307;27;20030;-44
2020/12/18 07:08:50;;;;;;;6.55;5.00;;;6.10;80.10;;;;;;5144813;27;20117;-44
2020/12/18 07:11:18;;;;;;;6.90;5.28;;;6.10;80.10;;;;;;5144954;27;20039;-43
2020/12/18 07:13:47;;;;;;;6.10;4.70;;;6.10;80.10;;;;;;5127180;27;20034;-44
2020/12/18 07:16:14;;;;;;;6.93;5.10;;;6.10;80.10;;;;;;5145095;27;20031;-44
2020/12/18 07:18:41;;;;;;;6.55;5.28;;;6.10;80.20;;;;;;5144619;27;20080;-44
2020/12/18 07:21:08;;;;;;;;;;;6.10;80.20;;;;;;5124555;28;20058;-44
2020/12/18 07:23:36;;;;;;;7.18;5.20;;;6.10;80.20;;;;;;5124334;28;19914;-44
2020/12/18 07:26:03;;;;;;;6.43;4.72;;;6.10;80.20;;;;;;5105702;28;20111;-43
2020/12/18 07:28:29;;;;;;;7.45;5.00;;;6.00;80.10;;;;;;5124031;28;20016;-43
2020/12/18 07:30:56;;;;;;;6.78;4.70;;;6.00;80.10;;;;;;5123981;28;20043;-44
2020/12/18 07:33:23;;;;;;;6.60;4.85;;;6.00;80.10;;;;;;5131314;27;20029;-43
2020/12/18 07:35:54;;;;;;;6.50;5.03;;;6.00;80.10;;;;;;5122991;28;20042;-45
2020/12/18 07:38:32;;;;;;;7.25;5.22;;;6.00;80.20;;;;;;5123949;28;20068;-44
2020/12/18 07:41:10;;;;;;;7.22;4.57;;;6.00;80.10;;;;;;5123860;28;20027;-43
2020/12/18 07:43:37;;;;;;;6.38;4.93;;;6.00;80.10;;;;;;5106269;28;20026;-43
2020/12/18 07:46:05;;;;;;;6.32;5.22;;;6.00;80.10;;;;;;5123930;28;20087;-43
2020/12/18 07:48:35;;;;;;;7.15;5.10;;;6.00;80.10;;;;;;5123779;28;20115;-43
2020/12/18 07:51:21;;;;;;;7.32;5.25;;;5.90;80.10;;;;;;5125573;27;20031;-43
2020/12/18 07:53:51;;;;;;;6.22;5.05;;;5.90;80.20;;;;;;5144450;27;20035;-43
2020/12/18 07:56:19;;;;;;;6.95;4.80;;;5.90;80.20;;;;;;5135125;27;20028;-44
2020/12/18 07:58:49;;;;;;;6.68;5.10;;;5.90;80.30;;;;;;5123443;28;20054;-44
2020/12/18 08:01:17;;;;;;;6.20;5.25;;;5.90;80.20;;;;;;5105337;28;20066;-43
2020/12/18 08:03:47;;;;;;;6.07;4.80;;;5.90;80.20;;;;;;5131296;27;20517;-44
2020/12/18 08:06:19;;;;;;;5.68;4.45;;;5.90;80.20;;;;;;5118469;28;20032;-44
2020/12/18 08:08:58;;;;;;;6.82;4.70;;;5.90;80.10;;;;;;5103054;28;20028;-43
2020/12/18 08:11:25;;;;;;;6.03;5.00;;;5.90;80.20;;;;;;5102911;28;20329;-43
2020/12/18 08:13:51;;;;;;;6.85;4.95;;;5.90;80.20;;;;;;5103294;28;20716;-43
2020/12/18 08:16:21;;;;;;;7.13;5.63;;;5.90;80.20;;;;;;5103250;28;20128;-44
2020/12/18 08:18:50;;;;;;;7.38;5.20;;;5.80;80.20;;;;;;5095076;28;20733;-43
2020/12/18 08:21:20;;;;;;;6.53;5.00;;;5.80;80.10;;;;;;5084735;28;20032;-43
2020/12/18 08:23:50;;;;;;;5.97;4.75;;;5.90;80.20;;;;;;5102846;28;20032;-43
2020/12/18 08:26:18;;;;;;;6.35;4.82;;;5.80;80.20;;;;;;5103060;28;20054;-43
2020/12/18 08:28:44;;;;;;;6.15;4.63;;;5.80;80.10;;;;;;5068174;28;20038;-44
2020/12/18 08:31:11;;;;;;;6.40;4.85;;;5.80;80.20;;;;;;5068115;28;20039;-44
2020/12/18 08:33:46;;;;;;;6.10;4.53;;;5.80;80.20;;;;;;5084541;28;20027;-44
2020/12/18 08:36:14;;;;;;;5.68;4.30;;;5.80;80.20;;;;;;5068862;28;20028;-43
2020/12/18 08:38:40;;;;;;;;;;;5.80;80.20;;;;;;5085013;28;20035;-43
2020/12/18 08:41:06;;;;;;;6.50;4.57;;;5.80;80.20;;;;;;5102691;28;19908;-43
2020/12/18 08:43:32;;;;;;;6.15;4.93;;;5.80;80.20;;;;;;5102796;28;20024;-43
2020/12/18 08:45:58;;;;;;;7.45;4.85;;;5.70;80.20;;;;;;5103379;28;20039;-43
2020/12/18 08:48:26;;;;;;;7.22;4.60;;;5.70;80.20;;;;;;5087520;28;20075;-43
2020/12/18 08:50:59;;;;;;;6.93;5.32;;;5.70;80.20;;;;;;5106254;28;20036;-43
2020/12/18 08:53:34;;;;;;;6.68;5.18;;;5.70;80.20;;;;;;5106917;28;20032;-44
2020/12/18 08:56:06;;;;;;;6.28;4.85;;;5.70;80.30;;;;;;5089068;28;20078;-48
2020/12/18 08:58:33;;;;;;;6.95;4.95;;;5.70;80.30;;;;;;5106655;28;20016;-43
2020/12/18 09:01:00;;;;;;;6.32;4.50;;;5.70;80.30;;;;;;5106037;28;20042;-44
2020/12/18 09:03:37;;;;;;;7.63;5.22;;;5.70;80.30;;;;;;5106381;28;20088;-44
2020/12/18 09:06:12;;;;;;;7.38;5.43;;;5.70;80.30;;;;;;5106523;28;20063;-43
2020/12/18 09:08:38;;;;;;;5.90;4.68;;;5.70;80.30;;;;;;5106561;28;20024;-43
2020/12/18 09:11:04;;;;;;;6.18;4.57;;;5.70;80.30;;;;;;5106243;28;20052;-43
2020/12/18 09:13:31;;;;;;;6.80;4.82;;;5.70;80.30;;;;;;5106117;28;20020;-44
2020/12/18 09:16:09;;;;;;;4.00;3.45;;;5.60;80.30;;;;;;5106327;28;20028;-43
2020/12/18 09:18:36;;;;;;;6.47;4.70;;;5.60;80.30;;;;;;5106018;28;20051;-43
2020/12/18 09:21:09;;;;;;;;;;;5.60;80.30;;;;;;5106379;28;20017;-43
2020/12/18 09:23:36;;;;;;;5.88;4.43;;;5.60;80.30;;;;;;5106193;28;19904;-43
2020/12/18 09:26:04;;;;;;;7.18;5.10;;;5.60;80.30;;;;;;5106094;28;20060;-43
2020/12/18 09:28:40;;;;;;;6.70;4.68;;;5.60;80.30;;;;;;5105955;28;20529;-43
2020/12/18 09:31:10;;;;;;;6.03;4.68;;;5.60;80.30;;;;;;5087694;28;20028;-43
2020/12/18 09:33:37;;;;;;;5.53;4.25;;;5.60;80.30;;;;;;5098206;28;20116;-44
2020/12/18 09:36:06;;;;;;;5.55;4.40;;;5.60;80.30;;;;;;5088478;28;20767;-43
2020/12/18 09:38:33;;;;;;;6.57;4.60;;;5.60;80.30;;;;;;5105831;28;20028;-43
2020/12/18 09:41:01;;;;;;;7.00;5.13;;;5.60;80.40;;;;;;5105651;28;20024;-43
2020/12/18 09:43:27;;;;;;;5.82;4.60;;;5.50;80.30;;;;;;5087799;28;20415;-43
2020/12/18 09:45:53;;;;;;;6.78;5.22;;;5.50;80.30;;;;;;5105897;28;20040;-43
2020/12/18 09:48:20;;;;;;;7.88;4.53;;;5.50;80.30;;;;;;5085834;28;20049;-43
2020/12/18 09:50:48;;;;;;;4.00;3.13;;;5.50;80.30;;;;;;5104929;28;20036;-44
2020/12/18 09:53:14;;;;;;;6.53;5.03;;;5.50;80.30;;;;;;5105431;28;20016;-43
2020/12/18 09:55:40;;;;;;;5.82;4.50;;;5.50;80.30;;;;;;5105330;28;20051;-44
2020/12/18 09:58:06;;;;;;;7.07;4.80;;;5.50;80.30;;;;;;5104439;28;20028;-44
2020/12/18 10:00:32;;;;;;;5.60;4.47;;;5.50;80.30;;;;;;5105504;28;20084;-43
2020/12/18 10:02:59;;;;;;;6.20;4.25;;;5.50;80.30;;;;;;5105058;28;20084;-43
2020/12/18 10:05:26;;;;;;;6.27;4.80;;;5.50;80.40;;;;;;5105227;28;20108;-43
2020/12/18 10:07:55;;;;;;;5.35;4.60;;;5.50;80.30;;;;;;5105173;28;20040;-44
2020/12/18 10:10:21;;;;;;;6.07;4.65;;;5.40;80.30;;;;;;5105209;28;20085;-43
2020/12/18 10:12:47;;;;;;;5.90;4.68;;;5.40;80.30;;;;;;5104853;28;20023;-43
2020/12/18 10:15:13;;;;;;;6.72;4.95;;;5.40;80.30;;;;;;5105236;28;20032;-43
2020/12/18 10:17:39;;;;;;;6.70;4.78;;;5.40;80.40;;;;;;5105242;28;20718;-43
2020/12/18 10:20:06;;;;;;;6.10;4.70;;;5.40;80.30;;;;;;5136980;27;20043;-44
2020/12/18 10:22:32;;;;;;;6.25;4.38;;;5.40;80.30;;;;;;5145884;27;20027;-42
2020/12/18 10:24:58;;;;;;;6.88;5.15;;;5.40;80.30;;;;;;5146075;27;20028;-43
2020/12/18 10:27:24;;;;;;;6.05;4.57;;;5.40;80.40;;;;;;5127186;27;20534;-44
2020/12/18 10:29:54;;;;;;;5.95;4.63;;;5.40;80.30;;;;;;5145718;27;20039;-43
2020/12/18 10:32:21;;;;;;;7.10;4.63;;;5.40;80.40;;;;;;5140893;27;20055;-44
2020/12/18 10:34:47;;;;;;;;;;;5.40;80.50;;;;;;5125510;28;20031;-43
2020/12/18 10:37:15;;;;;;;5.57;4.20;;;5.30;80.40;;;;;;5125023;28;19950;-42
2020/12/18 10:39:40;;;;;;;;;;;5.30;80.40;;;;;;5124175;27;20024;-43
2020/12/18 10:42:08;;;;;;;5.43;4.55;;;5.30;80.40;;;;;;5123877;28;20455;-43
2020/12/18 10:44:35;;;;;;;6.53;4.93;;;5.30;80.40;;;;;;5125103;28;20064;-43
2020/12/18 10:47:01;;;;;;;5.32;3.70;;;5.30;80.40;;;;;;5127561;27;20023;-44
2020/12/18 10:49:27;;;;;;;7.43;4.88;;;5.30;80.40;;;;;;5131576;27;20047;-43
2020/12/18 10:51:53;;;;;;;5.63;4.35;;;5.30;80.50;;;;;;5145397;27;20745;-44
2020/12/18 10:54:20;;;;;;;6.15;4.65;;;5.30;80.50;;;;;;5145051;27;20051;-42
2020/12/18 10:56:55;;;;;;;6.55;5.07;;;5.30;80.50;;;;;;5141925;27;20023;-43
2020/12/18 10:59:22;;;;;;;6.90;5.13;;;5.20;80.40;;;;;;5145366;27;20114;-43
2020/12/18 11:01:55;;;;;;;5.82;4.55;;;5.30;80.50;;;;;;5126580;27;20033;-43
2020/12/18 11:04:21;;;;;;;6.25;4.47;;;5.30;80.50;;;;;;5138156;27;20042;-43
2020/12/18 11:06:47;;;;;;;6.82;4.38;;;5.30;80.50;;;;;;5135172;27;20032;-43
2020/12/18 11:09:14;;;;;;;5.68;4.43;;;5.30;80.50;;;;;;5124338;28;20027;-43
2020/12/18 11:11:40;;;;;;;4.70;3.95;;;5.30;80.50;;;;;;5124377;28;20118;-44
2020/12/18 11:14:08;;;;;;;6.63;5.20;;;5.20;80.50;;;;;;5124216;28;20118;-43
2020/12/18 11:16:35;;;;;;;6.43;4.88;;;5.20;80.50;;;;;;5106203;28;20090;-43
2020/12/18 11:19:02;;;;;;;6.57;4.72;;;5.20;80.50;;;;;;5113254;28;20042;-43
2020/12/18 11:21:29;;;;;;;5.53;4.70;;;5.20;80.50;;;;;;5103744;28;20095;-43
2020/12/18 11:23:55;;;;;;;5.43;3.80;;;5.20;80.50;;;;;;5085276;28;20111;-43
2020/12/18 11:26:21;;;;;;;6.40;4.95;;;5.20;80.60;;;;;;5103881;28;20038;-43
2020/12/18 11:28:47;;;;;;;5.80;4.35;;;5.20;80.60;;;;;;5103459;28;20021;-43
2020/12/18 11:31:14;;;;;;;7.35;4.95;;;5.20;80.60;;;;;;5103574;28;20047;-44
2020/12/18 11:33:40;;;;;;;6.15;4.85;;;5.20;80.60;;;;;;5103202;28;20039;-43
2020/12/18 11:36:06;;;;;;;6.28;4.82;;;5.20;80.60;;;;;;5103356;28;20027;-44
2020/12/18 11:38:32;;;;;;;6.00;4.70;;;5.10;80.60;;;;;;5103502;28;20481;-44
2020/12/18 11:40:58;;;;;;;6.40;4.57;;;5.20;80.60;;;;;;5103413;28;20024;-43
2020/12/18 11:43:24;;;;;;;5.63;4.55;;;5.10;80.50;;;;;;5103175;28;20131;-44
2020/12/18 11:45:51;;;;;;;6.05;4.72;;;5.10;80.50;;;;;;5103414;28;20024;-43
2020/12/18 11:48:17;;;;;;;6.93;4.82;;;5.10;80.60;;;;;;5103418;28;20020;-43
2020/12/18 11:50:43;;;;;;;5.70;4.60;;;5.10;80.50;;;;;;5102985;28;20044;-43
2020/12/18 11:53:09;;;;;;;5.68;4.45;;;5.10;80.60;;;;;;5102968;28;20047;-43
2020/12/18 11:55:36;;;;;;;5.07;4.32;;;5.10;80.60;;;;;;5103327;28;20036;-43
2020/12/18 11:58:03;;;;;;;6.85;4.97;;;5.10;80.60;;;;;;5085099;28;20043;-43
2020/12/18 12:00:29;;;;;;;5.78;4.35;;;5.10;80.60;;;;;;5085011;28;20032;-45
2020/12/18 12:02:56;;;;;;;5.80;4.68;;;5.10;80.70;;;;;;5102939;28;20488;-42
2020/12/18 12:05:22;;;;;;;5.95;4.70;;;5.10;80.60;;;;;;5102941;28;20039;-43
2020/12/18 12:07:49;;;;;;;4.13;3.50;;;5.00;80.60;;;;;;5102724;28;20035;-43
2020/12/18 12:10:16;;;;;;;6.65;5.13;;;5.00;80.60;;;;;;5102914;28;20099;-44
2020/12/18 12:12:43;;;;;;;6.18;4.82;;;5.00;80.60;;;;;;5102804;28;20028;-44
2020/12/18 12:15:09;;;;;;;6.47;4.72;;;4.90;80.60;;;;;;5102781;28;20028;-44
2020/12/18 12:17:35;;;;;;;6.07;4.47;;;5.00;80.60;;;;;;5102940;28;20480;-44
2020/12/18 12:20:01;;;;;;;6.75;5.10;;;5.00;80.60;;;;;;5133426;27;20054;-44
2020/12/18 12:22:27;;;;;;;6.30;4.60;;;5.00;80.60;;;;;;5125186;28;20459;-43
2020/12/18 12:24:55;;;;;;;5.00;4.18;;;5.00;80.60;;;;;;5143575;27;20035;-43
2020/12/18 12:27:22;;;;;;;6.22;4.78;;;5.00;80.70;;;;;;5143627;28;20042;-43
2020/12/18 12:29:48;;;;;;;5.75;4.45;;;5.00;80.70;;;;;;5143788;28;20031;-43
2020/12/18 12:32:15;;;;;;;6.40;4.72;;;5.00;80.60;;;;;;5139731;28;20473;-43
2020/12/18 12:34:41;;;;;;;6.85;5.03;;;5.00;80.60;;;;;;5122755;28;20036;-43
2020/12/18 12:37:07;;;;;;;6.80;4.68;;;5.00;80.70;;;;;;5104950;28;20032;-43
2020/12/18 12:39:34;;;;;;;6.55;5.00;;;4.90;80.70;;;;;;5123144;28;20114;-44
2020/12/18 12:42:03;;;;;;;6.43;4.68;;;4.90;80.60;;;;;;5123143;28;20035;-43
2020/12/18 12:44:30;;;;;;;6.90;4.93;;;4.90;80.60;;;;;;5122603;28;20032;-43
2020/12/18 12:46:56;;;;;;;5.80;4.68;;;4.90;80.70;;;;;;5122958;28;20028;-43
2020/12/18 12:49:23;;;;;;;5.63;4.67;;;4.90;80.70;;;;;;5104658;28;20042;-44
2020/12/18 12:51:52;;;;;;;4.35;3.38;;;4.90;80.70;;;;;;5123015;28;20023;-43
2020/12/18 12:54:18;;;;;;;5.88;4.35;;;4.90;80.70;;;;;;5104503;28;20126;-45
2020/12/18 12:56:44;;;;;;;6.25;4.32;;;4.90;80.70;;;;;;5126332;28;20027;-43
2020/12/18 12:59:11;;;;;;;6.80;4.70;;;4.90;80.70;;;;;;5125696;28;20023;-43
2020/12/18 13:01:37;;;;;;;5.72;4.38;;;4.90;80.70;;;;;;5122376;28;20032;-43
2020/12/18 13:04:03;;;;;;;5.90;4.38;;;4.90;81.20;;;;;;5132101;28;20016;-44